Henderson City-County Information

FAA: EHR - ICAO: KEHR

Henderson City-County (Airport) Location

State Kentucky
County Henderson
City Henderson
Henderson City-County (Airport) is 4 miles west of Henderson, KY.
Latitude 37-48-28.2000N
Longitude 087-41-08.5000W
Elevation 386ft

Henderson City-County METARs

METAR KEHR 251756Z AUTO 34007KT 310V020 10SM CLR M03/M12 A3030 RMK AO2 SLP264 T10331117 11033 21072 50008 FZRANO
Altimeter 30.30"
Temperature -3.3°C (26.1°F)
Wind 340° at 7KT
Clouds Skies are clear.
Visibility 10.0mi
Time observed: 2022-01-25T17:56:00Z

Henderson City-County (Airport) Details

Status Operational
Activation October 1946
Ownership Public
Usage Public
Chart ST LOUIS
ATC on-site No
Beacon schedule sunset-sunrise
Beacon color clear green

Henderson City-County (Airport) Contacts

Owner HENDERSON CITY-COUNTY AIRPORT BOARD
Owner address 2154 HWY 136W SUITE 1, HENDERSON, KY 42420
Owner phone (270) 860-6901
Manager MIKE RICHARDSON
Manager address 399 AIRPORT RD, GREENVILLE, KY 42345
Manager phone (270) 543-5387

Henderson City-County Radio Frequencies

Henderson City-County (Airport) Radio Frequencies

UNICOM 122.8
Common traffic advisory frequency (CTAF) 122.8